createdAt,value
2019-02-21T00:00:23.810Z,10.98
2019-02-21T00:00:53.924Z,11.20
2019-02-21T00:01:29.886Z,11.42
2019-02-21T00:02:15.193Z,11.58
2019-02-21T00:02:46.534Z,11.72
2019-02-21T00:03:17.859Z,11.74
2019-02-21T00:03:49.158Z,11.68
2019-02-21T00:04:20.433Z,11.55
2019-02-21T00:04:51.743Z,11.37
2019-02-21T00:05:23.022Z,11.17
2019-02-21T00:05:54.318Z,10.94
2019-02-21T00:06:25.670Z,10.71
2019-02-21T00:06:56.953Z,10.48
2019-02-21T00:07:28.217Z,10.27
2019-02-21T00:07:59.496Z,10.06
2019-02-21T00:08:30.759Z,9.86
2019-02-21T00:09:02.734Z,9.69
2019-02-21T00:09:35.932Z,9.65
2019-02-21T00:10:07.185Z,9.70
2019-02-21T00:10:38.466Z,9.88
2019-02-21T00:11:09.739Z,10.09
2019-02-21T00:11:41.035Z,10.31
2019-02-21T00:12:12.380Z,10.55
2019-02-21T00:12:43.730Z,10.81
2019-02-21T00:13:15.257Z,11.00
2019-02-21T00:13:46.525Z,11.23
2019-02-21T00:14:17.834Z,11.42
2019-02-21T00:14:49.128Z,11.60
2019-02-21T00:15:20.413Z,11.77
2019-02-21T00:15:51.715Z,11.92
2019-02-21T00:16:22.976Z,12.01
2019-02-21T00:16:54.291Z,12.02
2019-02-21T00:17:25.686Z,11.96
2019-02-21T00:17:56.972Z,11.81
2019-02-21T00:18:28.303Z,11.63
2019-02-21T00:18:59.581Z,11.43
2019-02-21T00:19:30.937Z,11.22
2019-02-21T00:20:02.494Z,10.98
2019-02-21T00:20:34.922Z,10.72
2019-02-21T00:21:06.213Z,10.52
2019-02-21T00:21:38.592Z,10.30
2019-02-21T00:22:10.042Z,10.10
2019-02-21T00:22:41.330Z,9.92
2019-02-21T00:23:12.785Z,9.86
2019-02-21T00:23:44.103Z,9.88
2019-02-21T00:24:15.355Z,10.02
2019-02-21T00:24:46.704Z,10.17
2019-02-21T00:25:17.969Z,10.36
2019-02-21T00:25:49.391Z,10.58
2019-02-21T00:26:20.645Z,10.79
2019-02-21T00:26:51.964Z,11.00
2019-02-21T00:27:23.226Z,11.23
2019-02-21T00:27:54.575Z,11.36
2019-02-21T00:28:25.833Z,11.58
2019-02-21T00:28:57.190Z,11.72
2019-02-21T00:29:28.514Z,11.86
2019-02-21T00:29:59.836Z,11.99
2019-02-21T00:30:35.334Z,12.02
2019-02-21T00:31:04.293Z,11.95
2019-02-21T00:31:35.619Z,11.82
2019-02-21T00:32:06.930Z,11.65
2019-02-21T00:32:38.150Z,11.44
2019-02-21T00:33:09.478Z,11.22
2019-02-21T00:33:40.757Z,10.98
2019-02-21T00:34:12.100Z,10.74
2019-02-21T00:34:43.440Z,10.48
2019-02-21T00:35:15.109Z,10.26
2019-02-21T00:35:46.380Z,10.03
2019-02-21T00:36:17.680Z,9.90
2019-02-21T00:36:49.035Z,9.85
2019-02-21T00:37:20.358Z,9.90
2019-02-21T00:37:51.607Z,10.07
2019-02-21T00:38:22.914Z,10.26
2019-02-21T00:38:54.277Z,10.45
2019-02-21T00:39:25.721Z,10.65
2019-02-21T00:39:56.969Z,10.89
2019-02-21T00:40:28.300Z,11.10
2019-02-21T00:40:59.553Z,11.30
2019-02-21T00:41:30.918Z,11.47
2019-02-21T00:42:02.267Z,11.65
2019-02-21T00:42:33.607Z,11.81
2019-02-21T00:43:04.882Z,11.93
2019-02-21T00:43:36.219Z,12.08
2019-02-21T00:44:07.472Z,12.19
2019-02-21T00:44:38.782Z,12.19
2019-02-21T00:45:10.037Z,12.16
2019-02-21T00:45:41.367Z,12.01
2019-02-21T00:46:12.682Z,11.81
2019-02-21T00:46:44.035Z,11.58
2019-02-21T00:47:15.285Z,11.37
2019-02-21T00:47:46.607Z,11.12
2019-02-21T00:48:17.852Z,10.89
2019-02-21T00:48:49.190Z,10.70
2019-02-21T00:49:20.464Z,10.47
2019-02-21T00:49:51.845Z,10.30
2019-02-21T00:50:23.086Z,10.23
2019-02-21T00:50:54.384Z,10.26
2019-02-21T00:51:25.698Z,10.40
2019-02-21T00:51:56.954Z,10.58
2019-02-21T00:52:28.300Z,10.76
2019-02-21T00:52:59.548Z,10.99
2019-02-21T00:53:30.800Z,11.22
2019-02-21T00:54:02.070Z,11.40
2019-02-21T00:54:33.318Z,11.58
2019-02-21T00:55:05.030Z,11.75
2019-02-21T00:55:36.380Z,11.88
2019-02-21T00:56:07.643Z,12.01
2019-02-21T00:56:38.936Z,12.18
2019-02-21T00:57:10.216Z,12.28
2019-02-21T00:57:41.491Z,12.37
2019-02-21T00:58:12.781Z,12.40
2019-02-21T00:58:44.063Z,12.35
2019-02-21T00:59:15.340Z,12.19
2019-02-21T00:59:46.644Z,12.02
2019-02-21T01:00:17.933Z,11.80
2019-02-21T01:00:49.214Z,11.58
2019-02-21T01:01:20.997Z,11.36
2019-02-21T01:01:52.482Z,11.17
2019-02-21T01:02:23.782Z,10.94
2019-02-21T01:02:55.118Z,10.72
2019-02-21T01:03:26.458Z,10.55
2019-02-21T01:03:57.723Z,10.38
2019-02-21T01:04:29.031Z,10.34
2019-02-21T01:05:00.460Z,10.43
2019-02-21T01:05:31.816Z,10.60
2019-02-21T01:06:03.247Z,10.81
2019-02-21T01:06:34.491Z,11.05
2019-02-21T01:07:05.817Z,11.26
2019-02-21T01:07:37.159Z,11.51
2019-02-21T01:08:09.599Z,11.74
2019-02-21T01:08:40.957Z,11.88
2019-02-21T01:09:12.245Z,12.08
2019-02-21T01:09:43.481Z,12.23
2019-02-21T01:10:15.079Z,12.36
2019-02-21T01:10:46.346Z,12.51
2019-02-21T01:11:17.667Z,12.51
2019-02-21T01:11:49.008Z,12.49
2019-02-21T01:12:20.567Z,12.35
2019-02-21T01:12:51.929Z,12.18
2019-02-21T01:13:23.249Z,11.98
2019-02-21T01:13:54.659Z,11.77
2019-02-21T01:14:26.004Z,11.53
2019-02-21T01:14:57.262Z,11.30
2019-02-21T01:15:28.592Z,11.07
2019-02-21T01:15:59.847Z,10.85
2019-02-21T01:16:31.175Z,10.61
2019-02-21T01:17:03.431Z,10.43
2019-02-21T01:17:34.755Z,10.37
2019-02-21T01:18:06.010Z,10.45
2019-02-21T01:18:37.298Z,10.60
2019-02-21T01:19:08.678Z,10.78
2019-02-21T01:19:40.010Z,11.00
2019-02-21T01:20:11.302Z,11.23
2019-02-21T01:20:42.785Z,11.43
2019-02-21T01:21:14.078Z,11.64
2019-02-21T01:21:45.356Z,11.81
2019-02-21T01:22:16.716Z,12.01
2019-02-21T01:22:48.047Z,12.16
2019-02-21T01:23:19.306Z,12.32
2019-02-21T01:23:50.593Z,12.46
2019-02-21T01:24:21.922Z,12.54
2019-02-21T01:24:53.175Z,12.56
2019-02-21T01:25:24.614Z,12.47
2019-02-21T01:25:55.919Z,12.32
2019-02-21T01:26:27.225Z,12.13
2019-02-21T01:27:53.173Z,11.49
2019-02-21T01:28:24.612Z,11.26
2019-02-21T01:28:56.047Z,11.00
2019-02-21T01:29:27.487Z,10.78
2019-02-21T01:29:58.921Z,10.52
2019-02-21T01:30:30.357Z,10.36
2019-02-21T01:31:02.207Z,10.28
2019-02-21T01:31:33.557Z,10.37
2019-02-21T01:32:04.885Z,10.47
2019-02-21T01:32:36.225Z,10.67
2019-02-21T01:33:07.499Z,10.85
2019-02-21T01:33:38.835Z,11.05
2019-02-21T01:34:11.091Z,11.26
2019-02-21T01:34:42.640Z,11.46
2019-02-21T01:35:13.925Z,11.67
2019-02-21T01:35:45.298Z,11.84
2019-02-21T01:36:16.646Z,11.98
2019-02-21T01:36:48.005Z,12.11
2019-02-21T01:37:19.435Z,12.25
2019-02-21T01:37:50.788Z,12.37
2019-02-21T01:38:22.148Z,12.50
2019-02-21T01:38:53.495Z,12.57
2019-02-21T01:39:24.944Z,12.54
2019-02-21T01:39:56.325Z,12.47
2019-02-21T01:40:27.668Z,12.25
2019-02-21T01:40:58.904Z,12.06
2019-02-21T01:41:30.253Z,11.81
2019-02-21T01:42:01.501Z,11.58
2019-02-21T01:42:32.848Z,11.34
2019-02-21T01:43:04.070Z,11.10
2019-02-21T01:43:35.401Z,10.85
2019-02-21T01:44:06.650Z,10.63
2019-02-21T01:44:38.062Z,10.45
2019-02-21T01:45:09.336Z,10.38
2019-02-21T01:45:40.646Z,10.47
2019-02-21T01:46:11.904Z,10.58
2019-02-21T01:46:44.243Z,10.74
2019-02-21T01:47:15.581Z,10.94
2019-02-21T01:47:46.910Z,11.15
2019-02-21T01:48:18.164Z,11.39
2019-02-21T01:48:49.486Z,11.53
2019-02-21T01:49:20.732Z,11.72
2019-02-21T01:49:52.112Z,11.88
2019-02-21T01:50:23.471Z,12.03
2019-02-21T01:50:54.837Z,12.19
2019-02-21T01:51:26.194Z,12.30
2019-02-21T01:51:57.667Z,12.44
2019-02-21T01:52:28.945Z,12.54
2019-02-21T01:53:00.284Z,12.57
2019-02-21T01:53:31.655Z,12.47
2019-02-21T01:54:02.959Z,12.30
2019-02-21T01:54:34.227Z,12.11
2019-02-21T01:55:08.011Z,11.92
2019-02-21T01:55:39.315Z,11.67
2019-02-21T01:56:10.588Z,11.43
2019-02-21T01:56:42.060Z,11.19
2019-02-21T01:57:13.345Z,10.96
2019-02-21T01:57:44.637Z,10.74
2019-02-21T01:58:15.914Z,10.54
2019-02-21T01:58:47.226Z,10.47
2019-02-21T01:59:18.586Z,10.49
2019-02-21T01:59:49.898Z,10.61
2019-02-21T02:00:21.166Z,10.78
2019-02-21T02:00:52.970Z,10.96
2019-02-21T02:01:24.257Z,11.17
2019-02-21T02:01:55.555Z,11.39
2019-02-21T02:02:26.849Z,11.55
2019-02-21T02:02:58.145Z,11.74
2019-02-21T02:03:30.626Z,11.95
2019-02-21T02:04:01.913Z,12.12
2019-02-21T02:04:33.176Z,12.26
2019-02-21T02:05:06.556Z,12.40
2019-02-21T02:05:38.844Z,12.56
2019-02-21T02:06:10.089Z,12.67
2019-02-21T02:06:41.412Z,12.67
2019-02-21T02:07:12.669Z,12.60
2019-02-21T02:07:44.024Z,12.43
2019-02-21T02:08:15.289Z,12.23
2019-02-21T02:08:46.585Z,12.03
2019-02-21T02:09:17.949Z,11.82
2019-02-21T02:09:51.675Z,11.61
2019-02-21T02:10:22.918Z,11.36
2019-02-21T02:10:54.208Z,11.13
2019-02-21T02:11:27.544Z,10.91
2019-02-21T02:11:58.900Z,10.70
2019-02-21T02:12:30.147Z,10.51
2019-02-21T02:13:01.493Z,10.45
2019-02-21T02:13:34.715Z,10.51
2019-02-21T02:14:06.025Z,10.63
2019-02-21T02:14:37.282Z,10.82
2019-02-21T02:15:08.900Z,11.02
2019-02-21T02:15:40.247Z,11.27
2019-02-21T02:16:11.527Z,11.46
2019-02-21T02:16:42.813Z,11.64
2019-02-21T02:17:14.084Z,11.86
2019-02-21T02:17:47.539Z,12.02
2019-02-21T02:18:18.807Z,12.20
2019-02-21T02:18:50.136Z,12.33
2019-02-21T02:19:21.476Z,12.47
2019-02-21T02:19:52.863Z,12.60
2019-02-21T02:20:24.223Z,12.68
2019-02-21T02:20:55.557Z,12.68
2019-02-21T02:21:27.804Z,12.63
2019-02-21T02:21:59.134Z,12.46
2019-02-21T02:22:30.400Z,12.26
2019-02-21T02:23:01.729Z,12.06
2019-02-21T02:23:32.985Z,11.84
2019-02-21T02:24:04.299Z,11.58
2019-02-21T02:24:35.540Z,11.33
2019-02-21T02:25:06.852Z,11.12
2019-02-21T02:25:38.120Z,10.88
2019-02-21T02:26:09.540Z,10.67
2019-02-21T02:26:42.690Z,10.60
2019-02-21T02:27:14.027Z,10.61
2019-02-21T02:27:45.292Z,10.75
2019-02-21T02:28:16.696Z,10.91
2019-02-21T02:28:49.822Z,11.12
2019-02-21T02:29:21.186Z,11.34
2019-02-21T02:29:52.422Z,11.54
2019-02-21T02:30:23.733Z,11.75
2019-02-21T02:30:55.018Z,11.93
2019-02-21T02:31:26.380Z,12.13
2019-02-21T02:31:57.722Z,12.30
2019-02-21T02:32:29.177Z,12.43
2019-02-21T02:33:02.064Z,12.59
2019-02-21T02:33:33.440Z,12.71
2019-02-21T02:34:04.812Z,12.80
2019-02-21T02:34:36.193Z,12.78
2019-02-21T02:35:07.639Z,12.72
2019-02-21T02:35:38.997Z,12.54
2019-02-21T02:36:10.308Z,12.33
2019-02-21T02:36:41.547Z,12.12
2019-02-21T02:37:12.845Z,11.88
2019-02-21T02:37:44.089Z,11.63
2019-02-21T02:38:15.686Z,11.42
2019-02-21T02:38:46.930Z,11.17
2019-02-21T02:39:18.244Z,10.96
2019-02-21T02:39:49.495Z,10.74
2019-02-21T02:40:20.850Z,10.60
2019-02-21T02:40:52.093Z,10.54
2019-02-21T02:41:23.398Z,10.61
2019-02-21T02:41:54.650Z,10.76
2019-02-21T02:42:26.048Z,10.95
2019-02-21T02:42:57.294Z,11.17
2019-02-21T02:43:28.604Z,11.39
2019-02-21T02:43:59.869Z,11.60
2019-02-21T02:44:31.189Z,11.81
2019-02-21T02:45:04.148Z,11.98
2019-02-21T02:45:35.561Z,12.15
2019-02-21T02:46:06.937Z,12.30
2019-02-21T02:46:38.310Z,12.46
2019-02-21T02:47:09.714Z,12.59
2019-02-21T02:47:41.144Z,12.77
2019-02-21T02:48:12.665Z,12.84
2019-02-21T02:48:44.009Z,12.81
2019-02-21T02:49:15.379Z,12.71
2019-02-21T02:49:46.741Z,12.54
2019-02-21T02:50:18.102Z,12.37
2019-02-21T02:50:49.538Z,12.12
2019-02-21T02:51:22.756Z,11.89
2019-02-21T02:51:54.017Z,11.67
2019-02-21T02:52:25.332Z,11.44
2019-02-21T02:52:56.578Z,11.22
2019-02-21T02:53:27.944Z,10.95
2019-02-21T02:54:00.464Z,10.76
2019-02-21T02:54:31.860Z,10.68
2019-02-21T02:55:05.062Z,10.71
2019-02-21T02:55:36.452Z,10.85
2019-02-21T02:56:07.693Z,11.00
2019-02-21T02:56:39.007Z,11.20
2019-02-21T02:57:10.260Z,11.42
2019-02-21T02:57:42.614Z,11.63
2019-02-21T02:58:13.874Z,11.82
2019-02-21T02:58:45.675Z,11.98
2019-02-21T02:59:17.165Z,12.15
2019-02-21T02:59:48.492Z,12.29
2019-02-21T03:00:19.746Z,12.41
2019-02-21T03:00:51.096Z,12.54
2019-02-21T03:01:34.022Z,12.66
2019-02-21T03:01:55.695Z,12.72
2019-02-21T03:02:27.114Z,12.74
2019-02-21T03:02:58.544Z,12.67
2019-02-21T03:03:29.916Z,12.53
2019-02-21T03:04:01.384Z,12.32
2019-02-21T03:04:32.948Z,12.08
2019-02-21T03:05:04.801Z,11.84
2019-02-21T03:05:36.173Z,11.60
2019-02-21T03:06:07.535Z,11.36
2019-02-21T03:06:38.833Z,11.16
2019-02-21T03:07:10.122Z,10.91
2019-02-21T03:07:41.462Z,10.78
2019-02-21T03:08:12.815Z,10.72
2019-02-21T03:08:44.127Z,10.75
2019-02-21T03:09:15.385Z,10.88
2019-02-21T03:09:46.710Z,11.07
2019-02-21T03:10:18.073Z,11.27
2019-02-21T03:10:49.376Z,11.49
2019-02-21T03:11:20.711Z,11.70
2019-02-21T03:11:52.289Z,11.88
2019-02-21T03:12:23.577Z,12.09
2019-02-21T03:12:55.036Z,12.25
2019-02-21T03:13:26.379Z,12.43
2019-02-21T03:13:57.773Z,12.59
2019-02-21T03:14:31.004Z,12.74
2019-02-21T03:15:03.862Z,12.85
2019-02-21T03:15:35.179Z,12.85
2019-02-21T03:16:06.647Z,12.77
2019-02-21T03:16:37.958Z,12.60
2019-02-21T03:17:09.366Z,12.43
2019-02-21T03:17:40.830Z,12.22
2019-02-21T03:18:12.316Z,11.98
2019-02-21T03:18:43.691Z,11.77
2019-02-21T03:19:15.261Z,11.53
2019-02-21T03:19:46.642Z,11.27
2019-02-21T03:20:18.017Z,11.09
2019-02-21T03:20:49.363Z,10.89
2019-02-21T03:21:20.736Z,10.74
2019-02-21T03:21:52.060Z,10.65
2019-02-21T03:22:23.291Z,10.75
2019-02-21T03:22:54.635Z,10.88
2019-02-21T03:23:25.972Z,11.06
2019-02-21T03:23:57.291Z,11.29
2019-02-21T03:24:28.534Z,11.49
2019-02-21T03:24:59.863Z,11.71
2019-02-21T03:25:31.103Z,11.89
2019-02-21T03:26:02.521Z,12.11
2019-02-21T03:26:33.877Z,12.28
2019-02-21T03:27:05.344Z,12.46
2019-02-21T03:27:36.728Z,12.63
2019-02-21T03:28:08.114Z,12.75
2019-02-21T03:28:39.527Z,12.87
2019-02-21T03:29:10.880Z,12.88
2019-02-21T03:29:42.273Z,12.82
2019-02-21T03:30:13.658Z,12.67
2019-02-21T03:30:45.277Z,12.49
2019-02-21T03:31:18.622Z,12.28
2019-02-21T03:31:55.179Z,12.01
2019-02-21T03:32:23.173Z,11.77
2019-02-21T03:32:54.514Z,11.58
2019-02-21T03:33:25.787Z,11.36
2019-02-21T03:33:57.114Z,11.13
2019-02-21T03:34:28.476Z,10.92
2019-02-21T03:34:59.865Z,10.78
2019-02-21T03:35:31.112Z,10.70
2019-02-21T03:36:02.623Z,10.78
2019-02-21T03:36:33.974Z,10.91
2019-02-21T03:37:05.504Z,11.07
2019-02-21T03:37:36.835Z,11.30
2019-02-21T03:38:09.173Z,11.54
2019-02-21T03:38:40.410Z,11.72
2019-02-21T03:39:11.757Z,11.93
2019-02-21T03:39:43.263Z,12.11
2019-02-21T03:40:14.683Z,12.26
2019-02-21T03:40:46.038Z,12.43
2019-02-21T03:41:17.362Z,12.57
2019-02-21T03:41:48.726Z,12.67
2019-02-21T03:42:20.134Z,12.82
2019-02-21T03:42:51.677Z,12.90
2019-02-21T03:43:23.056Z,12.90
2019-02-21T03:43:54.419Z,12.75
2019-02-21T03:44:27.743Z,12.59
2019-02-21T03:44:59.645Z,12.36
2019-02-21T03:45:31.041Z,12.16
2019-02-21T03:46:02.432Z,11.91
2019-02-21T03:46:35.694Z,11.70
2019-02-21T03:47:07.054Z,11.43
2019-02-21T03:47:38.319Z,11.22
2019-02-21T03:48:09.696Z,10.98
2019-02-21T03:48:41.025Z,10.79
2019-02-21T03:49:12.339Z,10.75
2019-02-21T03:49:43.588Z,10.81
2019-02-21T03:50:15.167Z,10.95
2019-02-21T03:50:46.424Z,11.16
2019-02-21T03:51:17.821Z,11.37
2019-02-21T03:51:49.055Z,11.57
2019-02-21T03:52:20.407Z,11.81
2019-02-21T03:52:51.661Z,12.01
2019-02-21T03:53:22.943Z,12.20
2019-02-21T03:53:54.270Z,12.40
2019-02-21T03:54:25.552Z,12.54
2019-02-21T03:54:57.809Z,12.67
2019-02-21T03:55:29.096Z,12.80
2019-02-21T03:56:00.368Z,12.91
2019-02-21T03:56:31.629Z,12.94
2019-02-21T03:57:02.922Z,12.88
2019-02-21T03:57:34.160Z,12.77
2019-02-21T03:58:05.391Z,12.57
2019-02-21T03:58:36.663Z,12.37
2019-02-21T03:59:07.934Z,12.19
2019-02-21T03:59:39.255Z,11.95
2019-02-21T04:00:10.951Z,11.77
2019-02-21T04:00:44.003Z,11.54
2019-02-21T04:01:15.278Z,11.30
2019-02-21T04:01:47.563Z,11.10
2019-02-21T04:02:18.830Z,10.95
2019-02-21T04:02:50.071Z,10.91
2019-02-21T04:03:24.242Z,10.96
2019-02-21T04:03:58.224Z,11.12
2019-02-21T04:04:29.547Z,11.30
2019-02-21T04:05:00.910Z,11.51
2019-02-21T04:05:32.230Z,11.72
2019-02-21T04:06:03.496Z,11.95
2019-02-21T04:06:34.902Z,12.15
2019-02-21T04:07:06.155Z,12.35
2019-02-21T04:07:39.322Z,12.51
2019-02-21T04:08:10.612Z,12.68
2019-02-21T04:08:41.930Z,12.82
2019-02-21T04:09:13.310Z,12.99
2019-02-21T04:09:44.617Z,13.08
2019-02-21T04:10:15.998Z,13.14
2019-02-21T04:10:47.294Z,13.02
2019-02-21T04:11:18.592Z,12.91
2019-02-21T04:11:49.882Z,12.70
2019-02-21T04:12:21.160Z,12.49
2019-02-21T04:12:52.446Z,12.29
2019-02-21T04:13:23.720Z,12.05
2019-02-21T04:13:54.995Z,11.85
2019-02-21T04:14:26.291Z,11.61
2019-02-21T04:14:58.565Z,11.42
2019-02-21T04:15:29.825Z,11.17
2019-02-21T04:16:01.246Z,11.00
2019-02-21T04:16:32.646Z,10.94
2019-02-21T04:17:03.955Z,10.99
2019-02-21T04:17:35.222Z,11.09
2019-02-21T04:18:06.505Z,11.29
2019-02-21T04:18:37.779Z,11.51
2019-02-21T04:19:09.033Z,11.71
2019-02-21T04:19:40.327Z,11.92
2019-02-21T04:20:11.586Z,12.12
2019-02-21T04:20:42.991Z,12.29
2019-02-21T04:21:18.094Z,12.47
2019-02-21T04:21:49.399Z,12.63
2019-02-21T04:22:20.763Z,12.80
2019-02-21T04:22:52.062Z,12.92
2019-02-21T04:23:23.494Z,13.08
2019-02-21T04:23:54.781Z,13.11
2019-02-21T04:24:27.128Z,13.05
2019-02-21T04:24:58.402Z,12.92
2019-02-21T04:25:29.734Z,12.77
2019-02-21T04:26:00.978Z,12.56
2019-02-21T04:26:32.411Z,12.36
2019-02-21T04:27:03.664Z,12.13
2019-02-21T04:27:35.003Z,11.92
2019-02-21T04:28:06.230Z,11.72
2019-02-21T04:28:37.546Z,11.50
2019-02-21T04:29:08.925Z,11.31
2019-02-21T04:29:40.310Z,11.09
2019-02-21T04:30:11.741Z,10.94
2019-02-21T04:30:44.262Z,10.95
2019-02-21T04:31:15.680Z,11.02
2019-02-21T04:31:47.048Z,11.17
2019-02-21T04:32:18.446Z,11.39
2019-02-21T04:32:49.833Z,11.60
2019-02-21T04:33:21.158Z,11.82
2019-02-21T04:33:52.514Z,11.98
2019-02-21T04:34:23.873Z,12.18
2019-02-21T04:34:55.219Z,12.33
2019-02-21T04:35:26.596Z,12.50
2019-02-21T04:35:57.982Z,12.66
2019-02-21T04:36:29.320Z,12.80
2019-02-21T04:37:00.688Z,12.92
2019-02-21T04:37:31.981Z,13.02
2019-02-21T04:38:03.209Z,13.08
2019-02-21T04:38:34.546Z,12.99
2019-02-21T04:39:05.855Z,12.84
2019-02-21T04:39:37.387Z,12.67
2019-02-21T04:40:08.702Z,12.44
2019-02-21T04:40:40.075Z,12.23
2019-02-21T04:41:11.331Z,11.98
2019-02-21T04:41:42.879Z,11.75
2019-02-21T04:42:14.191Z,11.53
2019-02-21T04:42:45.494Z,11.31
2019-02-21T04:43:16.817Z,11.09
2019-02-21T04:43:48.137Z,10.92
2019-02-21T04:44:19.381Z,10.89
2019-02-21T04:44:50.686Z,10.96
2019-02-21T04:45:21.956Z,11.07
2019-02-21T04:45:53.286Z,11.27
2019-02-21T04:46:24.557Z,11.51
2019-02-21T04:46:55.964Z,11.75
2019-02-21T04:47:27.307Z,11.93
2019-02-21T04:47:58.665Z,12.13
2019-02-21T04:48:30.013Z,12.33
2019-02-21T04:49:01.332Z,12.50
2019-02-21T04:49:32.704Z,12.67
2019-02-21T04:50:04.839Z,12.82
2019-02-21T04:50:36.119Z,12.97
2019-02-21T04:51:07.462Z,13.08
2019-02-21T04:51:38.804Z,13.09
2019-02-21T04:52:10.120Z,13.02
2019-02-21T04:52:41.368Z,12.92
2019-02-21T04:53:12.954Z,12.74
2019-02-21T04:53:44.243Z,12.51
2019-02-21T04:54:15.577Z,12.30
2019-02-21T04:54:46.827Z,12.06
2019-02-21T04:55:18.148Z,11.82
2019-02-21T04:55:49.399Z,11.58
2019-02-21T04:56:20.721Z,11.39
2019-02-21T04:56:51.961Z,11.19
2019-02-21T04:57:23.258Z,11.03
2019-02-21T04:57:54.535Z,10.96
2019-02-21T04:58:25.795Z,11.05
2019-02-21T04:58:57.078Z,11.19
2019-02-21T04:59:30.236Z,11.39
2019-02-21T05:00:02.503Z,11.58
2019-02-21T05:00:33.890Z,11.82
2019-02-21T05:01:05.183Z,12.03
2019-02-21T05:01:36.476Z,12.20
2019-02-21T05:02:07.774Z,12.40
2019-02-21T05:02:39.051Z,12.59
2019-02-21T05:03:10.345Z,12.78
2019-02-21T05:03:41.629Z,12.92
2019-02-21T05:04:12.935Z,13.02
2019-02-21T05:04:44.229Z,13.05
2019-02-21T05:05:15.493Z,12.97
2019-02-21T05:05:46.784Z,12.84
2019-02-21T05:06:18.084Z,12.63
2019-02-21T05:06:49.369Z,12.43
2019-02-21T05:07:20.665Z,12.22
2019-02-21T05:07:51.984Z,11.98
2019-02-21T05:08:24.229Z,11.75
2019-02-21T05:08:55.532Z,11.53
2019-02-21T05:09:27.383Z,11.29
2019-02-21T05:09:58.823Z,11.09
2019-02-21T05:10:30.196Z,10.94
2019-02-21T05:11:01.651Z,10.85
2019-02-21T05:11:34.788Z,10.92
2019-02-21T05:12:06.098Z,11.05
2019-02-21T05:12:37.347Z,11.23
2019-02-21T05:13:08.659Z,11.44
2019-02-21T05:13:39.913Z,11.67
2019-02-21T05:14:11.229Z,11.91
2019-02-21T05:14:42.500Z,12.11
2019-02-21T05:15:14.277Z,12.29
2019-02-21T05:15:45.687Z,12.47
2019-02-21T05:16:17.110Z,12.64
2019-02-21T05:16:48.352Z,12.78
2019-02-21T05:17:19.675Z,12.91
2019-02-21T05:17:50.948Z,12.97
2019-02-21T05:18:22.323Z,12.90
2019-02-21T05:18:53.590Z,12.75
2019-02-21T05:19:24.929Z,12.60
2019-02-21T05:19:56.213Z,12.36
2019-02-21T05:20:27.554Z,12.15
2019-02-21T05:20:58.820Z,11.91
2019-02-21T05:21:30.128Z,11.71
2019-02-21T05:22:01.374Z,11.43
2019-02-21T05:22:32.678Z,11.20
2019-02-21T05:23:04.063Z,10.99
2019-02-21T05:23:36.791Z,10.79
2019-02-21T05:24:08.204Z,10.79
2019-02-21T05:24:39.517Z,10.81
2019-02-21T05:25:11.888Z,10.96
2019-02-21T05:25:43.168Z,11.15
2019-02-21T05:26:16.348Z,11.34
2019-02-21T05:26:52.475Z,11.58
2019-02-21T05:27:25.597Z,11.82
2019-02-21T05:27:57.084Z,12.02
2019-02-21T05:28:29.849Z,12.23
2019-02-21T05:29:03.155Z,12.40
2019-02-21T05:29:34.527Z,12.57
2019-02-21T05:30:08.668Z,12.70
2019-02-21T05:30:40.033Z,12.81
2019-02-21T05:31:13.280Z,12.94
2019-02-21T05:32:04.553Z,12.92
2019-02-21T05:32:49.469Z,12.68
2019-02-21T05:33:37.529Z,12.46
2019-02-21T05:34:10.661Z,12.05
2019-02-21T05:35:01.887Z,11.85
2019-02-21T05:35:37.762Z,11.50
2019-02-21T05:36:10.969Z,11.22
2019-02-21T05:36:44.439Z,11.00
2019-02-21T05:37:20.558Z,10.84
2019-02-21T05:38:09.957Z,10.78
2019-02-21T05:38:46.132Z,10.88
2019-02-21T05:39:19.252Z,11.06
2019-02-21T05:40:09.007Z,11.27
2019-02-21T05:40:42.081Z,11.55
2019-02-21T05:41:15.434Z,11.75
2019-02-21T05:41:51.387Z,11.96
2019-02-21T05:42:29.862Z,12.16
2019-02-21T05:43:10.865Z,12.39
2019-02-21T05:43:49.878Z,12.56
2019-02-21T05:44:39.176Z,12.72
2019-02-21T05:45:15.248Z,12.90
2019-02-21T05:45:54.164Z,13.02
2019-02-21T05:46:42.529Z,13.01
2019-02-21T05:47:16.489Z,12.82
2019-02-21T05:47:49.699Z,12.63
2019-02-21T05:48:26.781Z,12.40
2019-02-21T05:49:04.029Z,12.16
2019-02-21T05:49:37.177Z,11.88
2019-02-21T05:50:11.369Z,11.63
2019-02-21T05:50:42.668Z,11.37
2019-02-21T05:51:24.694Z,11.17
2019-02-21T05:51:57.833Z,10.88
2019-02-21T05:52:31.041Z,10.74
2019-02-21T05:53:13.146Z,10.65
2019-02-21T05:53:51.989Z,10.79
2019-02-21T05:54:25.195Z,10.96
2019-02-21T05:55:04.055Z,11.19
2019-02-21T05:55:50.174Z,11.42
2019-02-21T05:56:25.291Z,11.72
2019-02-21T05:57:04.519Z,11.95
2019-02-21T05:57:52.486Z,12.18
2019-02-21T05:58:25.740Z,12.40
2019-02-21T05:59:15.268Z,12.56
2019-02-21T06:00:04.639Z,12.77
2019-02-21T06:00:40.506Z,12.90
2019-02-21T06:01:30.105Z,13.04
2019-02-21T06:02:01.376Z,12.97
2019-02-21T06:02:53.288Z,12.88
2019-02-21T06:03:37.464Z,12.59
2019-02-21T06:04:19.419Z,12.26
2019-02-21T06:04:55.207Z,11.98
2019-02-21T06:05:26.512Z,11.74
2019-02-21T06:05:59.661Z,11.54
2019-02-21T06:06:42.786Z,11.33
2019-02-21T06:07:32.388Z,11.02
2019-02-21T06:08:03.701Z,10.71
2019-02-21T06:08:47.489Z,10.60
2019-02-21T06:09:23.319Z,10.54
2019-02-21T06:09:56.462Z,10.64
2019-02-21T06:10:46.197Z,10.81
2019-02-21T06:11:25.266Z,11.13
2019-02-21T06:12:01.348Z,11.42
2019-02-21T06:12:34.478Z,11.65
2019-02-21T06:13:10.551Z,11.89
2019-02-21T06:14:00.794Z,12.15
2019-02-21T06:14:42.946Z,12.35
2019-02-21T06:15:26.091Z,12.53
2019-02-21T06:15:59.400Z,12.71
2019-02-21T06:16:48.968Z,12.85
2019-02-21T06:17:25.031Z,12.97
2019-02-21T06:17:58.287Z,12.92
2019-02-21T06:18:40.172Z,12.78
2019-02-21T06:19:13.648Z,12.57
2019-02-21T06:19:49.796Z,12.39
2019-02-21T06:20:23.019Z,12.15
2019-02-21T06:20:58.871Z,11.92
2019-02-21T06:21:34.815Z,11.65
2019-02-21T06:22:13.862Z,11.43
2019-02-21T06:22:52.857Z,11.16
2019-02-21T06:23:26.083Z,10.88
2019-02-21T06:24:11.032Z,10.74
2019-02-21T06:24:44.230Z,10.70
2019-02-21T06:25:33.861Z,10.81
2019-02-21T06:26:25.176Z,11.07
2019-02-21T06:27:14.634Z,11.37
2019-02-21T06:27:47.877Z,11.68
2019-02-21T06:28:20.994Z,11.86
2019-02-21T06:28:54.235Z,12.09
2019-02-21T06:29:27.421Z,12.29
2019-02-21T06:30:00.733Z,12.50
2019-02-21T06:30:33.963Z,12.67
2019-02-21T06:31:07.232Z,12.81
2019-02-21T06:31:38.537Z,12.92
2019-02-21T06:32:14.342Z,12.94
2019-02-21T06:32:43.273Z,12.85
2019-02-21T06:33:14.529Z,12.74
2019-02-21T06:33:45.957Z,12.53
2019-02-21T06:34:17.329Z,12.32
2019-02-21T06:34:52.254Z,12.08
2019-02-21T06:35:23.055Z,11.84
2019-02-21T06:35:54.403Z,11.60
2019-02-21T06:36:26.299Z,11.34
2019-02-21T06:36:57.638Z,11.15
2019-02-21T06:37:29.484Z,10.92
2019-02-21T06:38:00.717Z,10.84
2019-02-21T06:38:33.679Z,10.86
2019-02-21T06:39:06.234Z,11.00
2019-02-21T06:39:37.629Z,11.19
2019-02-21T06:40:09.889Z,11.39
2019-02-21T06:40:43.613Z,11.57
2019-02-21T06:41:14.888Z,11.78
2019-02-21T06:41:46.264Z,11.98
2019-02-21T06:42:17.623Z,12.12
2019-02-21T06:42:48.999Z,12.30
2019-02-21T06:43:20.388Z,12.43
2019-02-21T06:43:52.732Z,12.56
2019-02-21T06:44:24.297Z,12.68
2019-02-21T06:44:55.647Z,12.81
2019-02-21T06:45:27.096Z,12.92
2019-02-21T06:45:58.465Z,12.95
2019-02-21T06:46:29.809Z,12.88
2019-02-21T06:47:01.130Z,12.72
2019-02-21T06:47:32.454Z,12.56
2019-02-21T06:48:03.695Z,12.30
2019-02-21T06:48:35.050Z,12.08
2019-02-21T06:49:06.371Z,11.86
2019-02-21T06:49:37.681Z,11.61
2019-02-21T06:50:08.955Z,11.36
2019-02-21T06:50:41.376Z,11.13
2019-02-21T06:51:12.627Z,10.94
2019-02-21T06:51:43.970Z,10.86
2019-02-21T06:52:15.839Z,10.86
2019-02-21T06:52:47.244Z,10.98
2019-02-21T06:53:19.478Z,11.10
2019-02-21T06:53:53.077Z,11.30
2019-02-21T06:54:23.950Z,11.50
2019-02-21T06:54:55.351Z,11.68
2019-02-21T06:55:26.721Z,11.89
2019-02-21T06:55:57.973Z,12.05
2019-02-21T06:56:29.212Z,12.23
2019-02-21T06:57:00.522Z,12.39
2019-02-21T06:57:31.770Z,12.56
2019-02-21T06:58:03.017Z,12.70
2019-02-21T06:58:34.306Z,12.82
2019-02-21T06:59:06.612Z,12.92